Date,TemperatureHighF,TemperatureAvgF,TemperatureLowF,DewpointHighF,DewpointAvgF,DewpointLowF,HumidityHigh,HumidityAvg,HumidityLow,PressureMaxIn,PressureMinIn,WindSpeedMaxMPH,WindSpeedAvgMPH,GustSpeedMaxMPH,PrecipitationSumIn
2013-8-1,89,72,64,-100,-100,-100,0,0,100,0.00,40.00,0,-999,0,0.00
2013-8-2,89,72,62,-100,-100,-100,0,0,100,0.00,40.00,0,-999,0,0.00
2013-8-3,81,73,67,-100,-100,-100,0,0,100,0.00,40.00,0,-999,0,0.00
2013-8-4,88,73,65,-100,-100,-100,0,0,100,0.00,40.00,0,-999,0,0.00
2013-8-5,91,79,70,-100,-100,-100,0,0,100,0.00,40.00,0,-999,0,0.00
2013-8-6,91,78,64,-100,-100,-100,0,0,100,0.00,40.00,0,-999,0,0.00
2013-8-7,74,68,63,-100,-100,-100,0,0,100,0.00,40.00,0,-999,0,0.00
2013-8-8,72,65,61,-100,-100,-100,0,0,100,0.00,40.00,0,-999,0,0.00
2013-8-9,79,65,58,-100,-100,-100,0,0,100,0.00,40.00,0,-999,0,0.00
2013-8-10,82,68,58,-100,-100,-100,0,0,100,0.00,40.00,0,-999,0,0.00
2013-8-11,87,73,62,-100,-100,-100,0,0,100,0.00,40.00,0,-999,0,0.00
2013-8-12,86,73,59,-100,-100,-100,0,0,100,0.00,40.00,0,-999,0,0.00
2013-8-13,84,71,58,-100,-100,-100,0,0,100,0.00,40.00,0,-999,0,0.00
2013-8-14,83,71,62,-100,-100,-100,0,0,100,0.00,40.00,0,-999,0,0.00
2013-8-15,86,76,58,-100,-100,-100,0,0,100,0.00,40.00,0,-999,0,0.00
2013-8-16,88,71,60,-100,-100,-100,0,0,100,0.00,40.00,0,-999,0,0.00
2013-8-17,86,71,62,-100,-100,-100,0,0,100,0.00,40.00,0,-999,0,0.00
2013-8-18,85,73,63,-100,-100,-100,0,0,100,0.00,40.00,0,-999,0,0.00
2013-8-19,90,70,60,-100,-100,-100,0,0,100,0.00,40.00,0,-999,0,0.00
2013-8-20,90,73,61,-100,-100,-100,0,0,100,0.00,40.00,0,-999,0,0.00
2013-8-21,94,78,63,-100,-100,-100,0,0,100,0.00,40.00,0,-999,0,0.00
2013-8-22,85,76,68,-100,-100,-100,0,0,100,0.00,40.00,0,-999,0,0.00
2013-8-23,90,74,67,-100,-100,-100,0,0,100,0.00,40.00,0,-999,0,0.00
2013-8-24,92,76,60,-100,-100,-100,0,0,100,0.00,40.00,0,-999,0,0.00
2013-8-25,91,75,65,-100,-100,-100,0,0,100,0.00,40.00,0,-999,0,0.00
2013-8-26,91,76,64,-100,-100,-100,0,0,100,0.00,40.00,0,-999,0,0.00
2013-8-27,86,69,60,-100,-100,-100,0,0,100,0.00,40.00,0,-999,0,0.00
2013-8-28,93,85,69,-100,-100,-100,0,0,100,0.00,40.00,0,-999,0,0.00
2013-8-29,95,80,57,-100,-100,-100,0,0,100,0.00,40.00,0,-999,0,0.00
2013-8-30,96,77,63,-100,-100,-100,0,0,100,0.00,40.00,0,-999,0,0.00
2013-8-31,93,78,67,-100,-100,-100,0,0,100,0.00,40.00,0,-999,0,0.00